sensor_id;sensor_type;location;lat;lon;timestamp;temperature;humidity
23329;DHT22;11836;51.050;3.716;2023-05-23T00:00:07;21.10;98.90
23329;DHT22;11836;51.050;3.716;2023-05-23T00:02:33;21.10;98.90
23329;DHT22;11836;51.050;3.716;2023-05-23T00:05:03;21.10;98.90
23329;DHT22;11836;51.050;3.716;2023-05-23T00:07:29;21.10;98.90
23329;DHT22;11836;51.050;3.716;2023-05-23T00:09:56;21.10;98.80
23329;DHT22;11836;51.050;3.716;2023-05-23T00:12:23;21.10;98.80
23329;DHT22;11836;51.050;3.716;2023-05-23T00:14:50;21.10;98.90
23329;DHT22;11836;51.050;3.716;2023-05-23T00:17:18;21.10;98.90
23329;DHT22;11836;51.050;3.716;2023-05-23T00:19:44;21.10;99.00
23329;DHT22;11836;51.050;3.716;2023-05-23T00:22:31;21.00;98.90
23329;DHT22;11836;51.050;3.716;2023-05-23T00:24:58;21.00;98.90
23329;DHT22;11836;51.050;3.716;2023-05-23T00:27:26;21.00;99.00
23329;DHT22;11836;51.050;3.716;2023-05-23T00:32:56;21.00;99.00
23329;DHT22;11836;51.050;3.716;2023-05-23T00:35:27;21.00;99.00
23329;DHT22;11836;51.050;3.716;2023-05-23T00:38:05;21.00;99.10
23329;DHT22;11836;51.050;3.716;2023-05-23T00:40:33;21.00;99.10
23329;DHT22;11836;51.050;3.716;2023-05-23T00:43:00;21.00;99.10
23329;DHT22;11836;51.050;3.716;2023-05-23T00:45:26;21.00;99.20
23329;DHT22;11836;51.050;3.716;2023-05-23T00:47:58;21.00;99.20
23329;DHT22;11836;51.050;3.716;2023-05-23T00:50:25;21.00;99.20
23329;DHT22;11836;51.050;3.716;2023-05-23T00:52:54;21.00;99.20
23329;DHT22;11836;51.050;3.716;2023-05-23T00:55:24;21.00;99.20
23329;DHT22;11836;51.050;3.716;2023-05-23T00:57:52;20.90;99.10
23329;DHT22;11836;51.050;3.716;2023-05-23T01:00:20;21.00;99.10
23329;DHT22;11836;51.050;3.716;2023-05-23T01:02:46;21.00;99.10
23329;DHT22;11836;51.050;3.716;2023-05-23T01:05:27;21.00;99.10
23329;DHT22;11836;51.050;3.716;2023-05-23T01:07:53;20.90;99.00
23329;DHT22;11836;51.050;3.716;2023-05-23T01:10:24;20.90;99.10
23329;DHT22;11836;51.050;3.716;2023-05-23T01:13:28;20.90;99.00
23329;DHT22;11836;51.050;3.716;2023-05-23T01:16:08;20.90;99.00
23329;DHT22;11836;51.050;3.716;2023-05-23T01:18:56;20.90;99.00
23329;DHT22;11836;51.050;3.716;2023-05-23T01:21:26;20.90;99.00
23329;DHT22;11836;51.050;3.716;2023-05-23T01:29:39;20.90;99.00
23329;DHT22;11836;51.050;3.716;2023-05-23T01:32:09;20.90;99.10
23329;DHT22;11836;51.050;3.716;2023-05-23T01:34:52;20.90;99.10
23329;DHT22;11836;51.050;3.716;2023-05-23T01:37:47;20.90;99.10
23329;DHT22;11836;51.050;3.716;2023-05-23T01:40:12;20.90;99.00
23329;DHT22;11836;51.050;3.716;2023-05-23T01:42:38;20.90;99.00
23329;DHT22;11836;51.050;3.716;2023-05-23T01:45:04;20.90;99.00
23329;DHT22;11836;51.050;3.716;2023-05-23T01:47:31;20.90;99.00
23329;DHT22;11836;51.050;3.716;2023-05-23T01:50:18;20.80;99.00
23329;DHT22;11836;51.050;3.716;2023-05-23T01:52:51;20.80;99.00
23329;DHT22;11836;51.050;3.716;2023-05-23T01:55:19;20.90;99.00
23329;DHT22;11836;51.050;3.716;2023-05-23T01:57:50;20.80;99.00
23329;DHT22;11836;51.050;3.716;2023-05-23T02:00:16;20.80;99.00
23329;DHT22;11836;51.050;3.716;2023-05-23T02:02:44;20.80;99.00
23329;DHT22;11836;51.050;3.716;2023-05-23T02:05:10;20.80;99.00
23329;DHT22;11836;51.050;3.716;2023-05-23T02:07:36;20.80;99.10
23329;DHT22;11836;51.050;3.716;2023-05-23T02:10:23;20.80;99.10
23329;DHT22;11836;51.050;3.716;2023-05-23T02:12:49;20.70;99.00
23329;DHT22;11836;51.050;3.716;2023-05-23T02:15:27;20.80;99.10
23329;DHT22;11836;51.050;3.716;2023-05-23T02:20:50;20.70;99.10
23329;DHT22;11836;51.050;3.716;2023-05-23T02:23:38;20.70;99.20
23329;DHT22;11836;51.050;3.716;2023-05-23T02:26:03;20.70;99.20
23329;DHT22;11836;51.050;3.716;2023-05-23T02:28:29;20.70;99.10
23329;DHT22;11836;51.050;3.716;2023-05-23T02:30:55;20.70;99.20
23329;DHT22;11836;51.050;3.716;2023-05-23T02:33:20;20.70;99.10
23329;DHT22;11836;51.050;3.716;2023-05-23T02:35:46;20.70;99.00
23329;DHT22;11836;51.050;3.716;2023-05-23T02:38:14;20.70;99.10
23329;DHT22;11836;51.050;3.716;2023-05-23T02:40:40;20.70;99.10
23329;DHT22;11836;51.050;3.716;2023-05-23T02:43:05;20.70;99.10
23329;DHT22;11836;51.050;3.716;2023-05-23T02:45:31;20.70;99.00
23329;DHT22;11836;51.050;3.716;2023-05-23T02:47:57;20.70;98.90
23329;DHT22;11836;51.050;3.716;2023-05-23T02:50:22;20.70;98.90
23329;DHT22;11836;51.050;3.716;2023-05-23T02:52:49;20.60;98.90
23329;DHT22;11836;51.050;3.716;2023-05-23T02:55:40;20.70;98.80
23329;DHT22;11836;51.050;3.716;2023-05-23T02:58:07;20.70;98.80
23329;DHT22;11836;51.050;3.716;2023-05-23T03:00:33;20.60;98.90
23329;DHT22;11836;51.050;3.716;2023-05-23T03:02:59;20.60;99.10
23329;DHT22;11836;51.050;3.716;2023-05-23T03:05:40;20.60;99.10
23329;DHT22;11836;51.050;3.716;2023-05-23T03:08:06;20.60;99.10
23329;DHT22;11836;51.050;3.716;2023-05-23T03:10:31;20.60;99.20
23329;DHT22;11836;51.050;3.716;2023-05-23T03:12:57;20.60;99.20
23329;DHT22;11836;51.050;3.716;2023-05-23T03:15:23;20.60;99.30
23329;DHT22;11836;51.050;3.716;2023-05-23T03:17:49;20.50;99.20
23329;DHT22;11836;51.050;3.716;2023-05-23T03:20:14;20.60;99.20
23329;DHT22;11836;51.050;3.716;2023-05-23T03:22:41;20.60;99.20
23329;DHT22;11836;51.050;3.716;2023-05-23T03:25:10;20.60;99.10
23329;DHT22;11836;51.050;3.716;2023-05-23T03:27:35;20.50;99.10
23329;DHT22;11836;51.050;3.716;2023-05-23T03:33:21;20.50;99.20
23329;DHT22;11836;51.050;3.716;2023-05-23T03:35:47;20.50;99.20
23329;DHT22;11836;51.050;3.716;2023-05-23T03:38:13;20.50;99.10
23329;DHT22;11836;51.050;3.716;2023-05-23T03:40:40;20.50;99.00
23329;DHT22;11836;51.050;3.716;2023-05-23T03:43:06;20.50;99.00
23329;DHT22;11836;51.050;3.716;2023-05-23T03:45:41;20.50;99.00
23329;DHT22;11836;51.050;3.716;2023-05-23T03:48:06;20.50;99.20
23329;DHT22;11836;51.050;3.716;2023-05-23T03:50:32;20.50;99.10
23329;DHT22;11836;51.050;3.716;2023-05-23T03:52:57;20.50;99.20
23329;DHT22;11836;51.050;3.716;2023-05-23T03:55:23;20.40;98.90
23329;DHT22;11836;51.050;3.716;2023-05-23T03:57:50;20.50;98.80
23329;DHT22;11836;51.050;3.716;2023-05-23T04:00:17;20.40;99.00
23329;DHT22;11836;51.050;3.716;2023-05-23T04:02:45;20.40;99.10
23329;DHT22;11836;51.050;3.716;2023-05-23T04:05:12;20.40;98.90
23329;DHT22;11836;51.050;3.716;2023-05-23T04:07:38;20.50;98.90
23329;DHT22;11836;51.050;3.716;2023-05-23T04:10:04;20.40;98.90
23329;DHT22;11836;51.050;3.716;2023-05-23T04:12:30;20.40;98.90
23329;DHT22;11836;51.050;3.716;2023-05-23T04:14:56;20.40;98.90
23329;DHT22;11836;51.050;3.716;2023-05-23T04:17:24;20.40;99.00
23329;DHT22;11836;51.050;3.716;2023-05-23T04:19:50;20.40;99.10
23329;DHT22;11836;51.050;3.716;2023-05-23T04:22:16;20.40;99.20
23329;DHT22;11836;51.050;3.716;2023-05-23T04:24:42;20.40;99.10
23329;DHT22;11836;51.050;3.716;2023-05-23T04:27:12;20.40;99.20
23329;DHT22;11836;51.050;3.716;2023-05-23T04:29:44;20.40;99.20
23329;DHT22;11836;51.050;3.716;2023-05-23T04:32:11;20.30;99.00
23329;DHT22;11836;51.050;3.716;2023-05-23T04:34:37;20.30;99.20
23329;DHT22;11836;51.050;3.716;2023-05-23T04:37:05;20.30;99.20
23329;DHT22;11836;51.050;3.716;2023-05-23T04:39:31;20.30;99.30
23329;DHT22;11836;51.050;3.716;2023-05-23T04:41:57;20.40;99.30
23329;DHT22;11836;51.050;3.716;2023-05-23T04:44:24;20.30;99.20
23329;DHT22;11836;51.050;3.716;2023-05-23T04:46:51;20.40;99.10
23329;DHT22;11836;51.050;3.716;2023-05-23T04:49:17;20.30;99.10
23329;DHT22;11836;51.050;3.716;2023-05-23T04:51:42;20.30;99.20
23329;DHT22;11836;51.050;3.716;2023-05-23T04:54:08;20.30;99.10
23329;DHT22;11836;51.050;3.716;2023-05-23T04:56:34;20.30;99.10
23329;DHT22;11836;51.050;3.716;2023-05-23T04:59:00;20.30;99.30
23329;DHT22;11836;51.050;3.716;2023-05-23T05:01:25;20.30;99.00
23329;DHT22;11836;51.050;3.716;2023-05-23T05:03:52;20.30;99.20
23329;DHT22;11836;51.050;3.716;2023-05-23T05:06:18;20.30;99.10
23329;DHT22;11836;51.050;3.716;2023-05-23T05:08:45;20.30;99.00
23329;DHT22;11836;51.050;3.716;2023-05-23T05:11:11;20.30;99.00
23329;DHT22;11836;51.050;3.716;2023-05-23T05:13:37;20.30;99.00
23329;DHT22;11836;51.050;3.716;2023-05-23T05:16:02;20.30;99.00
23329;DHT22;11836;51.050;3.716;2023-05-23T05:18:29;20.20;98.60
23329;DHT22;11836;51.050;3.716;2023-05-23T05:20:54;20.20;98.90
23329;DHT22;11836;51.050;3.716;2023-05-23T05:23:24;20.20;99.20
23329;DHT22;11836;51.050;3.716;2023-05-23T05:25:50;20.20;99.40
23329;DHT22;11836;51.050;3.716;2023-05-23T05:28:16;20.20;99.50
23329;DHT22;11836;51.050;3.716;2023-05-23T05:30:42;20.20;99.50
23329;DHT22;11836;51.050;3.716;2023-05-23T05:33:07;20.20;99.30
23329;DHT22;11836;51.050;3.716;2023-05-23T05:35:34;20.30;99.10
23329;DHT22;11836;51.050;3.716;2023-05-23T05:38:03;20.20;99.00
23329;DHT22;11836;51.050;3.716;2023-05-23T05:40:31;20.20;98.60
23329;DHT22;11836;51.050;3.716;2023-05-23T05:42:57;20.30;99.00
23329;DHT22;11836;51.050;3.716;2023-05-23T05:45:22;20.30;99.40
23329;DHT22;11836;51.050;3.716;2023-05-23T05:47:48;20.30;99.00
23329;DHT22;11836;51.050;3.716;2023-05-23T05:50:14;20.40;98.90
23329;DHT22;11836;51.050;3.716;2023-05-23T05:52:40;20.40;99.20
23329;DHT22;11836;51.050;3.716;2023-05-23T05:55:08;20.40;99.20
23329;DHT22;11836;51.050;3.716;2023-05-23T05:57:39;20.40;99.40
23329;DHT22;11836;51.050;3.716;2023-05-23T06:00:08;20.40;99.40
23329;DHT22;11836;51.050;3.716;2023-05-23T06:02:39;20.40;99.00
23329;DHT22;11836;51.050;3.716;2023-05-23T06:05:05;20.40;98.50
23329;DHT22;11836;51.050;3.716;2023-05-23T06:07:35;20.40;98.50
23329;DHT22;11836;51.050;3.716;2023-05-23T06:10:02;20.40;98.80
23329;DHT22;11836;51.050;3.716;2023-05-23T06:12:28;20.40;98.70
23329;DHT22;11836;51.050;3.716;2023-05-23T06:14:56;20.30;98.80
23329;DHT22;11836;51.050;3.716;2023-05-23T06:17:23;20.30;98.50
23329;DHT22;11836;51.050;3.716;2023-05-23T06:19:48;20.30;98.40
23329;DHT22;11836;51.050;3.716;2023-05-23T06:22:14;20.30;98.60
23329;DHT22;11836;51.050;3.716;2023-05-23T06:24:40;20.30;98.50
23329;DHT22;11836;51.050;3.716;2023-05-23T06:27:05;20.30;98.20
23329;DHT22;11836;51.050;3.716;2023-05-23T06:29:31;20.30;98.60
23329;DHT22;11836;51.050;3.716;2023-05-23T06:31:57;20.30;98.30
23329;DHT22;11836;51.050;3.716;2023-05-23T06:34:23;20.30;98.60
23329;DHT22;11836;51.050;3.716;2023-05-23T06:36:48;20.20;99.10
23329;DHT22;11836;51.050;3.716;2023-05-23T06:39:14;20.20;99.20
23329;DHT22;11836;51.050;3.716;2023-05-23T06:41:40;20.20;99.00
23329;DHT22;11836;51.050;3.716;2023-05-23T06:44:06;20.30;99.00
23329;DHT22;11836;51.050;3.716;2023-05-23T06:46:31;20.20;99.00
23329;DHT22;11836;51.050;3.716;2023-05-23T06:48:57;20.30;99.30
23329;DHT22;11836;51.050;3.716;2023-05-23T06:51:23;20.30;99.50
23329;DHT22;11836;51.050;3.716;2023-05-23T06:53:48;20.20;99.40
23329;DHT22;11836;51.050;3.716;2023-05-23T06:56:14;20.30;99.00
23329;DHT22;11836;51.050;3.716;2023-05-23T06:58:40;20.30;99.20
23329;DHT22;11836;51.050;3.716;2023-05-23T07:01:06;20.30;99.20
23329;DHT22;11836;51.050;3.716;2023-05-23T07:03:32;20.30;99.60
23329;DHT22;11836;51.050;3.716;2023-05-23T07:05:57;20.30;98.90
23329;DHT22;11836;51.050;3.716;2023-05-23T07:08:23;20.30;99.00
23329;DHT22;11836;51.050;3.716;2023-05-23T07:10:49;20.20;98.80
23329;DHT22;11836;51.050;3.716;2023-05-23T07:13:15;20.20;99.10
23329;DHT22;11836;51.050;3.716;2023-05-23T07:15:40;20.20;99.30
23329;DHT22;11836;51.050;3.716;2023-05-23T07:18:07;20.20;99.00
23329;DHT22;11836;51.050;3.716;2023-05-23T07:20:33;20.20;99.10
23329;DHT22;11836;51.050;3.716;2023-05-23T07:22:59;20.20;98.80
23329;DHT22;11836;51.050;3.716;2023-05-23T07:25:25;20.20;98.70
23329;DHT22;11836;51.050;3.716;2023-05-23T07:27:51;20.20;98.70
23329;DHT22;11836;51.050;3.716;2023-05-23T07:30:21;20.20;98.80
23329;DHT22;11836;51.050;3.716;2023-05-23T07:32:48;20.20;98.70
23329;DHT22;11836;51.050;3.716;2023-05-23T07:35:14;20.20;98.70
23329;DHT22;11836;51.050;3.716;2023-05-23T07:37:40;20.10;98.80
23329;DHT22;11836;51.050;3.716;2023-05-23T07:40:06;20.10;99.10
23329;DHT22;11836;51.050;3.716;2023-05-23T07:42:34;20.10;98.70
23329;DHT22;11836;51.050;3.716;2023-05-23T07:44:59;20.10;98.60
23329;DHT22;11836;51.050;3.716;2023-05-23T07:47:25;20.10;98.90
23329;DHT22;11836;51.050;3.716;2023-05-23T07:49:53;20.10;99.00
23329;DHT22;11836;51.050;3.716;2023-05-23T07:52:19;20.10;99.20
23329;DHT22;11836;51.050;3.716;2023-05-23T07:54:45;20.10;99.50
23329;DHT22;11836;51.050;3.716;2023-05-23T07:57:11;20.10;98.60
23329;DHT22;11836;51.050;3.716;2023-05-23T07:59:37;20.10;98.50
23329;DHT22;11836;51.050;3.716;2023-05-23T08:02:03;20.10;98.60
23329;DHT22;11836;51.050;3.716;2023-05-23T08:04:29;20.10;98.80
23329;DHT22;11836;51.050;3.716;2023-05-23T08:06:55;20.10;98.90
23329;DHT22;11836;51.050;3.716;2023-05-23T08:09:22;20.10;98.50
23329;DHT22;11836;51.050;3.716;2023-05-23T08:11:48;20.10;98.40
23329;DHT22;11836;51.050;3.716;2023-05-23T08:14:13;20.10;98.50
23329;DHT22;11836;51.050;3.716;2023-05-23T08:16:39;20.10;98.30
23329;DHT22;11836;51.050;3.716;2023-05-23T08:19:05;20.10;98.60
23329;DHT22;11836;51.050;3.716;2023-05-23T08:21:30;20.10;98.90
23329;DHT22;11836;51.050;3.716;2023-05-23T08:23:57;20.10;98.80
23329;DHT22;11836;51.050;3.716;2023-05-23T08:26:24;20.10;98.60
23329;DHT22;11836;51.050;3.716;2023-05-23T08:28:52;20.10;98.80
23329;DHT22;11836;51.050;3.716;2023-05-23T08:31:19;20.20;98.80
23329;DHT22;11836;51.050;3.716;2023-05-23T08:33:44;20.10;98.70
23329;DHT22;11836;51.050;3.716;2023-05-23T08:36:10;20.20;98.60
23329;DHT22;11836;51.050;3.716;2023-05-23T08:38:36;20.20;98.80
23329;DHT22;11836;51.050;3.716;2023-05-23T08:41:04;20.20;98.60
23329;DHT22;11836;51.050;3.716;2023-05-23T08:43:37;20.20;98.20
23329;DHT22;11836;51.050;3.716;2023-05-23T08:46:03;20.30;98.50
23329;DHT22;11836;51.050;3.716;2023-05-23T08:48:30;20.30;98.30
23329;DHT22;11836;51.050;3.716;2023-05-23T08:50:57;20.30;98.60
23329;DHT22;11836;51.050;3.716;2023-05-23T08:53:25;20.30;98.70
23329;DHT22;11836;51.050;3.716;2023-05-23T08:55:51;20.40;98.60
23329;DHT22;11836;51.050;3.716;2023-05-23T08:58:19;20.40;98.60
23329;DHT22;11836;51.050;3.716;2023-05-23T09:00:46;20.30;99.20
23329;DHT22;11836;51.050;3.716;2023-05-23T09:03:12;20.30;98.20
23329;DHT22;11836;51.050;3.716;2023-05-23T09:05:39;20.40;98.50
23329;DHT22;11836;51.050;3.716;2023-05-23T09:08:04;20.40;98.60
23329;DHT22;11836;51.050;3.716;2023-05-23T09:10:30;20.40;98.50
23329;DHT22;11836;51.050;3.716;2023-05-23T09:12:56;20.50;98.30
23329;DHT22;11836;51.050;3.716;2023-05-23T09:15:23;20.50;98.30
23329;DHT22;11836;51.050;3.716;2023-05-23T09:17:49;20.50;98.00
23329;DHT22;11836;51.050;3.716;2023-05-23T09:20:16;20.40;97.80
23329;DHT22;11836;51.050;3.716;2023-05-23T09:22:46;20.60;97.90
23329;DHT22;11836;51.050;3.716;2023-05-23T09:25:12;20.60;98.60
23329;DHT22;11836;51.050;3.716;2023-05-23T09:27:38;20.70;99.30
23329;DHT22;11836;51.050;3.716;2023-05-23T09:30:08;20.70;99.50
23329;DHT22;11836;51.050;3.716;2023-05-23T09:32:34;20.70;98.90
23329;DHT22;11836;51.050;3.716;2023-05-23T09:35:02;20.70;99.10
23329;DHT22;11836;51.050;3.716;2023-05-23T09:40:06;20.70;98.40
23329;DHT22;11836;51.050;3.716;2023-05-23T09:42:35;20.70;99.10
23329;DHT22;11836;51.050;3.716;2023-05-23T09:45:10;20.70;99.30
23329;DHT22;11836;51.050;3.716;2023-05-23T09:47:36;20.70;98.80
23329;DHT22;11836;51.050;3.716;2023-05-23T09:50:02;20.70;99.20
23329;DHT22;11836;51.050;3.716;2023-05-23T09:52:38;20.70;99.00
23329;DHT22;11836;51.050;3.716;2023-05-23T09:55:05;20.80;98.60
23329;DHT22;11836;51.050;3.716;2023-05-23T09:57:34;20.80;98.80
23329;DHT22;11836;51.050;3.716;2023-05-23T10:00:03;20.90;98.70
23329;DHT22;11836;51.050;3.716;2023-05-23T10:03:09;21.00;98.50
23329;DHT22;11836;51.050;3.716;2023-05-23T10:05:41;21.10;98.10
23329;DHT22;11836;51.050;3.716;2023-05-23T10:08:15;21.20;98.30
23329;DHT22;11836;51.050;3.716;2023-05-23T10:13:44;21.40;97.80
23329;DHT22;11836;51.050;3.716;2023-05-23T10:16:35;21.40;97.50
23329;DHT22;11836;51.050;3.716;2023-05-23T10:19:08;21.40;97.50
23329;DHT22;11836;51.050;3.716;2023-05-23T10:22:14;21.30;97.10
23329;DHT22;11836;51.050;3.716;2023-05-23T10:24:34;21.40;97.30
23329;DHT22;11836;51.050;3.716;2023-05-23T10:27:04;21.40;97.60
23329;DHT22;11836;51.050;3.716;2023-05-23T10:29:33;21.40;97.40
23329;DHT22;11836;51.050;3.716;2023-05-23T10:32:01;21.50;97.40
23329;DHT22;11836;51.050;3.716;2023-05-23T10:35:03;21.50;97.10
23329;DHT22;11836;51.050;3.716;2023-05-23T10:37:44;21.70;97.30
23329;DHT22;11836;51.050;3.716;2023-05-23T10:43:15;21.70;96.80
23329;DHT22;11836;51.050;3.716;2023-05-23T10:45:44;21.70;96.40
23329;DHT22;11836;51.050;3.716;2023-05-23T10:48:22;21.80;96.70
23329;DHT22;11836;51.050;3.716;2023-05-23T10:51:10;21.80;96.10
23329;DHT22;11836;51.050;3.716;2023-05-23T10:53:41;21.80;96.50
23329;DHT22;11836;51.050;3.716;2023-05-23T10:56:09;21.80;96.50
23329;DHT22;11836;51.050;3.716;2023-05-23T10:58:38;21.80;96.50
23329;DHT22;11836;51.050;3.716;2023-05-23T11:01:07;21.80;96.20
23329;DHT22;11836;51.050;3.716;2023-05-23T11:09:09;21.80;96.00
23329;DHT22;11836;51.050;3.716;2023-05-23T11:12:02;21.80;96.30
23329;DHT22;11836;51.050;3.716;2023-05-23T11:14:51;21.70;96.30
23329;DHT22;11836;51.050;3.716;2023-05-23T11:17:29;21.80;96.40
23329;DHT22;11836;51.050;3.716;2023-05-23T11:22:32;21.80;96.00
23329;DHT22;11836;51.050;3.716;2023-05-23T11:25:11;21.70;91.30
23329;DHT22;11836;51.050;3.716;2023-05-23T11:27:39;21.50;92.50
23329;DHT22;11836;51.050;3.716;2023-05-23T11:30:22;21.40;94.20
23329;DHT22;11836;51.050;3.716;2023-05-23T11:32:52;21.50;95.00
23329;DHT22;11836;51.050;3.716;2023-05-23T11:35:30;21.40;95.20
23329;DHT22;11836;51.050;3.716;2023-05-23T11:38:00;21.50;94.70
23329;DHT22;11836;51.050;3.716;2023-05-23T11:43:10;21.60;94.80
23329;DHT22;11836;51.050;3.716;2023-05-23T11:45:40;21.60;95.10
23329;DHT22;11836;51.050;3.716;2023-05-23T11:48:25;21.80;94.90
23329;DHT22;11836;51.050;3.716;2023-05-23T11:50:56;21.70;94.40
23329;DHT22;11836;51.050;3.716;2023-05-23T11:53:22;21.70;94.90
23329;DHT22;11836;51.050;3.716;2023-05-23T11:55:55;21.70;94.80
23329;DHT22;11836;51.050;3.716;2023-05-23T11:58:26;21.70;94.70
23329;DHT22;11836;51.050;3.716;2023-05-23T12:01:05;21.80;94.50
23329;DHT22;11836;51.050;3.716;2023-05-23T12:03:43;21.80;94.40
23329;DHT22;11836;51.050;3.716;2023-05-23T12:06:09;21.80;95.00
23329;DHT22;11836;51.050;3.716;2023-05-23T12:08:35;21.70;95.00
23329;DHT22;11836;51.050;3.716;2023-05-23T12:11:01;21.80;94.80
23329;DHT22;11836;51.050;3.716;2023-05-23T12:13:29;21.80;94.30
23329;DHT22;11836;51.050;3.716;2023-05-23T12:15:59;21.80;94.40
23329;DHT22;11836;51.050;3.716;2023-05-23T12:18:30;21.70;94.50
23329;DHT22;11836;51.050;3.716;2023-05-23T12:21:03;21.80;94.20
23329;DHT22;11836;51.050;3.716;2023-05-23T12:23:30;21.80;93.90
23329;DHT22;11836;51.050;3.716;2023-05-23T12:25:57;21.70;94.40
23329;DHT22;11836;51.050;3.716;2023-05-23T12:28:43;21.70;94.80
23329;DHT22;11836;51.050;3.716;2023-05-23T12:33:42;21.80;95.20
23329;DHT22;11836;51.050;3.716;2023-05-23T12:36:09;21.80;95.10
23329;DHT22;11836;51.050;3.716;2023-05-23T12:38:36;21.80;94.30
23329;DHT22;11836;51.050;3.716;2023-05-23T12:41:17;21.70;93.60
23329;DHT22;11836;51.050;3.716;2023-05-23T12:43:54;21.70;94.50
23329;DHT22;11836;51.050;3.716;2023-05-23T12:46:23;21.70;94.30
23329;DHT22;11836;51.050;3.716;2023-05-23T12:49:07;21.70;94.10
23329;DHT22;11836;51.050;3.716;2023-05-23T12:51:34;21.60;94.30
23329;DHT22;11836;51.050;3.716;2023-05-23T12:54:00;21.60;94.60
23329;DHT22;11836;51.050;3.716;2023-05-23T12:56:26;21.60;94.70
23329;DHT22;11836;51.050;3.716;2023-05-23T12:58:52;21.60;93.70
23329;DHT22;11836;51.050;3.716;2023-05-23T13:01:20;21.60;94.30
23329;DHT22;11836;51.050;3.716;2023-05-23T13:03:46;21.60;94.30
23329;DHT22;11836;51.050;3.716;2023-05-23T13:06:12;21.60;94.10
23329;DHT22;11836;51.050;3.716;2023-05-23T13:08:37;21.60;94.50
23329;DHT22;11836;51.050;3.716;2023-05-23T13:11:03;21.60;94.80
23329;DHT22;11836;51.050;3.716;2023-05-23T13:13:29;21.60;94.30
23329;DHT22;11836;51.050;3.716;2023-05-23T13:16:02;21.60;94.20
23329;DHT22;11836;51.050;3.716;2023-05-23T13:18:28;21.60;94.50
23329;DHT22;11836;51.050;3.716;2023-05-23T13:20:54;21.60;94.60
23329;DHT22;11836;51.050;3.716;2023-05-23T13:23:20;21.60;94.40
23329;DHT22;11836;51.050;3.716;2023-05-23T13:25:46;21.70;94.00
23329;DHT22;11836;51.050;3.716;2023-05-23T13:28:12;21.60;93.30
23329;DHT22;11836;51.050;3.716;2023-05-23T13:30:38;21.60;93.60
23329;DHT22;11836;51.050;3.716;2023-05-23T13:33:04;21.60;94.00
23329;DHT22;11836;51.050;3.716;2023-05-23T13:35:29;21.60;93.70
23329;DHT22;11836;51.050;3.716;2023-05-23T13:37:55;21.60;93.20
23329;DHT22;11836;51.050;3.716;2023-05-23T13:40:21;21.60;93.20
23329;DHT22;11836;51.050;3.716;2023-05-23T13:42:48;21.50;93.30
23329;DHT22;11836;51.050;3.716;2023-05-23T13:45:18;21.60;93.30
23329;DHT22;11836;51.050;3.716;2023-05-23T13:47:44;21.50;93.50
23329;DHT22;11836;51.050;3.716;2023-05-23T13:50:10;21.60;93.40
23329;DHT22;11836;51.050;3.716;2023-05-23T13:52:37;21.60;93.50
23329;DHT22;11836;51.050;3.716;2023-05-23T13:55:04;21.60;93.20
23329;DHT22;11836;51.050;3.716;2023-05-23T13:57:30;21.60;93.00
23329;DHT22;11836;51.050;3.716;2023-05-23T13:59:56;21.50;93.60
23329;DHT22;11836;51.050;3.716;2023-05-23T14:02:22;21.60;93.60
23329;DHT22;11836;51.050;3.716;2023-05-23T14:04:48;21.50;93.60
23329;DHT22;11836;51.050;3.716;2023-05-23T14:07:14;21.50;93.00
23329;DHT22;11836;51.050;3.716;2023-05-23T14:09:40;21.50;93.10
23329;DHT22;11836;51.050;3.716;2023-05-23T14:12:06;21.50;93.00
23329;DHT22;11836;51.050;3.716;2023-05-23T14:14:32;21.50;93.00
23329;DHT22;11836;51.050;3.716;2023-05-23T14:16:57;21.40;93.00
23329;DHT22;11836;51.050;3.716;2023-05-23T14:19:23;21.50;93.40
23329;DHT22;11836;51.050;3.716;2023-05-23T14:21:49;21.50;93.60
23329;DHT22;11836;51.050;3.716;2023-05-23T14:24:15;21.50;93.00
23329;DHT22;11836;51.050;3.716;2023-05-23T14:26:41;21.50;93.10
23329;DHT22;11836;51.050;3.716;2023-05-23T14:29:06;21.50;93.20
23329;DHT22;11836;51.050;3.716;2023-05-23T14:31:32;21.50;93.50
23329;DHT22;11836;51.050;3.716;2023-05-23T14:34:01;21.50;93.50
23329;DHT22;11836;51.050;3.716;2023-05-23T14:36:27;21.60;93.50
23329;DHT22;11836;51.050;3.716;2023-05-23T14:38:52;21.50;93.20
23329;DHT22;11836;51.050;3.716;2023-05-23T14:41:18;21.50;93.10
23329;DHT22;11836;51.050;3.716;2023-05-23T14:43:44;21.60;93.10
23329;DHT22;11836;51.050;3.716;2023-05-23T14:46:10;21.50;93.50
23329;DHT22;11836;51.050;3.716;2023-05-23T14:48:41;21.60;93.90
23329;DHT22;11836;51.050;3.716;2023-05-23T14:51:07;21.60;93.90
23329;DHT22;11836;51.050;3.716;2023-05-23T14:53:32;21.60;93.40
23329;DHT22;11836;51.050;3.716;2023-05-23T14:55:58;21.60;93.00
23329;DHT22;11836;51.050;3.716;2023-05-23T14:58:24;21.60;92.70
23329;DHT22;11836;51.050;3.716;2023-05-23T15:00:50;21.60;92.50
23329;DHT22;11836;51.050;3.716;2023-05-23T15:03:16;21.60;92.70
23329;DHT22;11836;51.050;3.716;2023-05-23T15:05:42;21.60;92.70
23329;DHT22;11836;51.050;3.716;2023-05-23T15:08:08;21.50;92.40
23329;DHT22;11836;51.050;3.716;2023-05-23T15:10:34;21.60;92.30
23329;DHT22;11836;51.050;3.716;2023-05-23T15:13:00;21.60;92.70
23329;DHT22;11836;51.050;3.716;2023-05-23T15:15:27;21.60;93.00
23329;DHT22;11836;51.050;3.716;2023-05-23T15:18:04;21.60;93.50
23329;DHT22;11836;51.050;3.716;2023-05-23T15:20:35;21.60;93.00
23329;DHT22;11836;51.050;3.716;2023-05-23T15:23:04;21.60;93.20
23329;DHT22;11836;51.050;3.716;2023-05-23T15:25:30;21.70;93.20
23329;DHT22;11836;51.050;3.716;2023-05-23T15:27:56;21.60;93.10
23329;DHT22;11836;51.050;3.716;2023-05-23T15:30:22;21.60;93.00
23329;DHT22;11836;51.050;3.716;2023-05-23T15:32:48;21.70;93.50
23329;DHT22;11836;51.050;3.716;2023-05-23T15:35:13;21.70;93.40
23329;DHT22;11836;51.050;3.716;2023-05-23T15:37:40;21.70;93.70
23329;DHT22;11836;51.050;3.716;2023-05-23T15:40:07;21.70;94.10
23329;DHT22;11836;51.050;3.716;2023-05-23T15:42:34;21.70;92.90
23329;DHT22;11836;51.050;3.716;2023-05-23T15:45:26;21.70;93.20
23329;DHT22;11836;51.050;3.716;2023-05-23T15:47:51;21.70;93.10
23329;DHT22;11836;51.050;3.716;2023-05-23T15:50:17;21.70;93.70
23329;DHT22;11836;51.050;3.716;2023-05-23T15:52:44;21.70;93.70
23329;DHT22;11836;51.050;3.716;2023-05-23T15:55:10;21.70;93.40
23329;DHT22;11836;51.050;3.716;2023-05-23T15:57:35;21.70;93.20
23329;DHT22;11836;51.050;3.716;2023-05-23T16:00:01;21.70;92.80
23329;DHT22;11836;51.050;3.716;2023-05-23T16:02:27;21.70;92.80
23329;DHT22;11836;51.050;3.716;2023-05-23T16:04:52;21.70;93.40
23329;DHT22;11836;51.050;3.716;2023-05-23T16:07:19;21.70;93.50
23329;DHT22;11836;51.050;3.716;2023-05-23T16:09:45;21.70;93.40
23329;DHT22;11836;51.050;3.716;2023-05-23T16:12:10;21.70;92.80
23329;DHT22;11836;51.050;3.716;2023-05-23T16:14:36;21.70;93.30